Time;durP1;ratioP1;P1;durP2;ratioP2;P2;SDS_P1;SDS_P2;PMS_P1;PMS_P2;Temp;Humidity;BMP_temperature;BMP_pressure;BME280_temperature;BME280_humidity;BME280_pressure;Samples;Min_cycle;Max_cycle;Signal;HPM_P1;HPM_P2
2023/05/16 00:01:45;;;;;;;10.52;7.25;;;;;;;-144.73;100.00;54280.44;5047752;28;20040;-71
2023/05/16 00:04:11;;;;;;;13.07;6.40;;;;;;;-144.73;100.00;54235.28;5074128;28;20013;-71
2023/05/16 00:06:36;;;;;;;10.57;6.75;;;;;;;-144.73;100.00;54284.56;5049552;28;20063;-71
2023/05/16 00:09:01;;;;;;;12.63;6.43;;;;;;;-144.73;100.00;54309.19;5085278;28;20016;-72
2023/05/16 00:11:27;;;;;;;14.48;6.55;;;;;;;-144.73;100.00;54259.91;5050827;28;20016;-69
2023/05/16 00:13:53;;;;;;;10.60;5.78;;;;;;;-144.73;100.00;54249.66;5048518;28;20091;-70
2023/05/16 00:16:20;;;;;;;11.07;6.05;;;;;;;-144.73;100.00;54292.75;5048497;28;20020;-70
2023/05/16 00:18:47;;;;;;;12.27;6.85;;;;;;;-144.73;100.00;54276.34;5047693;28;21003;-70
2023/05/16 00:21:12;;;;;;;14.85;6.90;;;;;;;-144.73;100.00;54227.09;5051655;28;20024;-70
2023/05/16 00:23:37;;;;;;;12.90;7.03;;;;;;;-144.73;100.00;54268.13;5058558;28;20474;-70
2023/05/16 00:26:03;;;;;;;15.65;6.45;;;;;;;-144.73;100.00;54231.19;5065687;28;20027;-70
2023/05/16 00:28:29;;;;;;;14.88;6.68;;;;;;;-144.73;100.00;54247.59;5050247;28;20033;-70
2023/05/16 00:30:54;;;;;;;14.75;7.38;;;;;;;-144.73;100.00;54276.34;5064133;28;20017;-70
2023/05/16 00:33:20;;;;;;;10.25;6.90;;;;;;;-144.73;100.00;54210.66;5051111;28;20686;-71
2023/05/16 00:35:45;;;;;;;9.20;5.03;;;;;;;-144.73;100.00;54342.03;5062134;28;20039;-70
2023/05/16 00:38:10;;;;;;;10.10;4.35;;;;;;;-144.73;100.00;54278.41;5047582;28;20025;-70
2023/05/16 00:40:36;;;;;;;14.45;4.72;;;;;;;-144.73;100.00;54268.13;5048580;28;20028;-70
2023/05/16 00:43:01;;;;;;;10.00;5.25;;;;;;;-144.73;100.00;54276.34;5050354;28;20032;-70
2023/05/16 00:45:27;;;;;;;8.45;4.13;;;;;;;-144.73;100.00;54233.25;5063843;28;20024;-70
2023/05/16 00:47:53;;;;;;;7.47;4.43;;;;;;;-144.73;100.00;54249.66;5048865;28;20017;-70
2023/05/16 00:50:18;;;;;;;9.43;3.53;;;;;;;-144.73;100.00;54280.44;5064991;28;20073;-71
2023/05/16 00:52:44;;;;;;;8.45;3.72;;;;;;;-144.73;100.00;54233.25;5054189;28;20498;-70
2023/05/16 00:55:09;;;;;;;6.05;3.95;;;;;;;-144.73;100.00;54239.41;5047833;28;20083;-70
2023/05/16 00:57:36;;;;;;;9.10;3.50;;;;;;;-144.73;100.00;54251.72;5050971;28;20033;-71
2023/05/16 01:00:05;;;;;;;6.30;3.65;;;;;;;-144.73;100.00;54259.91;5065311;28;20024;-70
2023/05/16 01:02:31;;;;;;;6.43;4.00;;;;;;;-144.73;100.00;54276.34;5060267;28;20063;-70
2023/05/16 01:04:57;;;;;;;9.90;3.67;;;;;;;-144.73;100.00;54268.13;5063066;28;20146;-71
2023/05/16 01:07:22;;;;;;;9.93;4.55;;;;;;;-144.73;100.00;54243.50;5079324;28;20107;-71
2023/05/16 01:09:48;;;;;;;9.20;3.83;;;;;;;-144.73;100.00;54276.34;5041710;28;20021;-71
2023/05/16 01:12:22;;;;;;;12.20;4.03;;;;;;;-144.73;100.00;54290.72;5050528;28;20032;-71
2023/05/16 01:15:08;;;;;;;9.27;4.00;;;;;;;-144.73;100.00;54249.66;5061501;28;20027;-70
2023/05/16 01:17:42;;;;;;;10.73;3.65;;;;;;;-144.73;100.00;54259.91;5060285;28;20032;-70
2023/05/16 01:20:38;;;;;;;7.40;3.38;;;;;;;-144.73;100.00;54255.81;5061843;28;20090;-70
2023/05/16 01:23:18;;;;;;;17.15;3.60;;;;;;;-144.73;100.00;54247.59;5045266;28;20029;-70
2023/05/16 01:25:44;;;;;;;11.50;3.63;;;;;;;-144.73;100.00;54227.09;5058043;28;20032;-70
2023/05/16 01:28:11;;;;;;;9.13;3.25;;;;;;;-144.73;100.00;54284.56;5064210;28;20035;-70
2023/05/16 01:30:39;;;;;;;9.60;3.65;;;;;;;-144.73;100.00;54276.34;5064963;28;20068;-70
2023/05/16 01:33:04;;;;;;;8.02;3.47;;;;;;;-144.73;100.00;54280.44;5048937;28;20025;-70
2023/05/16 01:35:30;;;;;;;12.57;3.25;;;;;;;-144.73;100.00;54259.91;5062964;28;20092;-70
2023/05/16 01:38:23;;;;;;;10.88;4.05;;;;;;;-144.73;100.00;54251.72;5047508;28;20064;-70
2023/05/16 01:40:55;;;;;;;14.10;3.90;;;;;;;-144.73;100.00;54296.88;5064161;28;20028;-70
2023/05/16 01:43:29;;;;;;;12.57;4.00;;;;;;;-144.73;100.00;54264.03;5047172;28;20033;-70
2023/05/16 01:46:01;;;;;;;15.00;4.85;;;;;;;-144.73;100.00;54235.28;5047123;28;20053;-70
2023/05/16 01:48:31;;;;;;;;;;;;;;;-144.73;100.00;54319.44;5051627;28;20046;-70
2023/05/16 01:50:59;;;;;;;18.85;4.70;;;;;;;-144.73;100.00;54247.59;5063901;28;19986;-70
2023/05/16 01:53:28;;;;;;;15.63;4.57;;;;;;;-144.73;100.00;54303.03;5053161;28;20036;-70
2023/05/16 01:55:56;;;;;;;10.65;4.28;;;;;;;-144.73;100.00;54259.91;5052877;28;20012;-70
2023/05/16 01:58:26;;;;;;;14.70;4.40;;;;;;;-144.73;100.00;54243.50;5061429;28;20029;-70
2023/05/16 02:00:52;;;;;;;12.95;4.13;;;;;;;-144.73;100.00;54286.59;5052507;28;20036;-70
2023/05/16 02:03:18;;;;;;;14.43;4.35;;;;;;;-144.73;100.00;54251.72;5050088;28;20049;-70
2023/05/16 02:05:43;;;;;;;18.65;3.85;;;;;;;-144.73;100.00;54288.66;5059041;28;20090;-70
2023/05/16 02:08:09;;;;;;;24.73;3.78;;;;;;;-144.73;100.00;54290.72;5065629;28;20033;-70
2023/05/16 02:10:34;;;;;;;18.65;3.90;;;;;;;-144.73;100.00;54235.28;5053278;28;20071;-70
2023/05/16 02:12:59;;;;;;;24.00;4.55;;;;;;;-144.73;100.00;54227.09;5061934;28;20395;-70
2023/05/16 02:15:25;;;;;;;39.65;5.38;;;;;;;-144.73;100.00;54276.34;5069299;28;20071;-70
2023/05/16 02:17:50;;;;;;;18.63;3.25;;;;;;;-144.73;100.00;54231.19;5052324;28;20033;-70
2023/05/16 02:20:16;;;;;;;19.63;4.43;;;;;;;-144.73;100.00;54280.44;5070240;28;20031;-70
2023/05/16 02:22:46;;;;;;;19.80;3.90;;;;;;;-144.73;100.00;54268.13;5060787;28;20045;-70
2023/05/16 02:25:13;;;;;;;18.75;3.55;;;;;;;-144.73;100.00;54255.81;5053209;28;20025;-70
2023/05/16 02:27:40;;;;;;;13.27;3.55;;;;;;;-144.73;100.00;54276.34;5051930;28;20112;-70
2023/05/16 02:30:06;;;;;;;16.17;3.42;;;;;;;-144.73;100.00;54245.56;5050428;28;20032;-70
2023/05/16 02:32:32;;;;;;;25.02;2.90;;;;;;;-144.73;100.00;54239.41;5052259;28;20036;-70
2023/05/16 02:34:58;;;;;;;16.55;3.05;;;;;;;-144.73;100.00;54284.56;5065326;28;20036;-70
2023/05/16 02:37:23;;;;;;;11.52;3.13;;;;;;;-144.73;100.00;54321.50;5060372;28;20127;-70
2023/05/16 02:39:48;;;;;;;16.00;3.13;;;;;;;-144.73;100.00;54239.41;5049774;28;20037;-70
2023/05/16 02:42:14;;;;;;;12.55;2.80;;;;;;;-144.73;100.00;54288.66;5052326;28;20045;-70
2023/05/16 02:44:40;;;;;;;20.55;3.25;;;;;;;-144.73;100.00;54276.34;5060362;28;20063;-70
2023/05/16 02:47:05;;;;;;;19.67;3.55;;;;;;;-144.73;100.00;54231.19;5064485;28;20051;-70
2023/05/16 02:49:31;;;;;;;21.23;3.40;;;;;;;-144.73;100.00;54276.34;5049897;28;20081;-69
2023/05/16 02:51:56;;;;;;;24.00;3.42;;;;;;;-144.73;100.00;54276.34;5049992;28;20514;-70
2023/05/16 02:54:21;;;;;;;17.08;3.38;;;;;;;-144.73;100.00;54255.81;5051216;28;20028;-70
2023/05/16 02:56:47;;;;;;;20.00;3.10;;;;;;;-144.73;100.00;54284.56;5051451;28;20044;-71
2023/05/16 02:59:12;;;;;;;20.90;3.63;;;;;;;-144.73;100.00;54300.97;5065047;28;20120;-69
2023/05/16 03:01:37;;;;;;;21.50;3.33;;;;;;;-144.73;100.00;54259.91;5050767;28;20037;-70
2023/05/16 03:04:03;;;;;;;20.25;3.50;;;;;;;-144.73;100.00;54280.44;5050610;28;20364;-70
2023/05/16 03:06:29;;;;;;;25.70;4.07;;;;;;;-144.73;100.00;54231.19;5067436;28;20437;-70
2023/05/16 03:08:54;;;;;;;30.05;3.92;;;;;;;-144.73;100.00;54243.50;5048685;28;20029;-70
2023/05/16 03:11:21;;;;;;;30.42;4.20;;;;;;;-144.73;100.00;54255.81;5067311;28;20082;-70
2023/05/16 03:13:46;;;;;;;26.88;4.25;;;;;;;-144.73;100.00;54292.75;5049871;28;20534;-70
2023/05/16 03:16:12;;;;;;;17.60;3.45;;;;;;;-144.73;100.00;54298.91;5052651;28;20103;-70
2023/05/16 03:18:37;;;;;;;25.77;4.30;;;;;;;-144.73;100.00;54255.81;5048693;28;20041;-70
2023/05/16 03:21:03;;;;;;;20.00;4.35;;;;;;;-144.73;100.00;54280.44;5077212;28;20029;-70
2023/05/16 03:23:28;;;;;;;20.80;3.95;;;;;;;-144.73;100.00;54255.81;5051245;28;20038;-69
2023/05/16 03:25:53;;;;;;;24.15;4.70;;;;;;;-144.73;100.00;54276.34;5049424;28;20040;-70
2023/05/16 03:28:19;;;;;;;28.45;4.63;;;;;;;-144.73;100.00;54259.91;5051544;28;20025;-69
2023/05/16 03:30:44;;;;;;;26.30;4.03;;;;;;;-144.73;100.00;54292.75;5061741;28;20064;-69
2023/05/16 03:33:09;;;;;;;29.42;4.53;;;;;;;-144.73;100.00;54247.59;5058247;28;20067;-69
2023/05/16 03:35:35;;;;;;;29.77;4.63;;;;;;;-144.73;100.00;54251.72;5047624;28;20522;-69
2023/05/16 03:38:01;;;;;;;33.97;4.95;;;;;;;-144.73;100.00;54243.50;5050231;28;20033;-69
2023/05/16 03:40:27;;;;;;;22.45;3.58;;;;;;;-144.73;100.00;54264.03;5070454;28;20118;-69
2023/05/16 03:42:52;;;;;;;23.85;5.22;;;;;;;-144.73;100.00;54243.50;5048280;28;20051;-69
2023/05/16 03:45:17;;;;;;;27.83;4.45;;;;;;;-144.73;100.00;54280.44;5064032;28;20028;-69
2023/05/16 03:47:43;;;;;;;37.88;4.18;;;;;;;-144.73;100.00;54284.56;5051536;28;20052;-71
2023/05/16 03:50:08;;;;;;;24.85;4.60;;;;;;;-144.73;100.00;54280.44;5047284;28;20121;-71
2023/05/16 03:52:34;;;;;;;17.48;4.00;;;;;;;-144.73;100.00;54284.56;5051080;28;20111;-70
2023/05/16 03:55:04;;;;;;;22.98;4.38;;;;;;;-144.73;100.00;54276.34;5051578;28;20024;-70
2023/05/16 03:57:30;;;;;;;25.35;3.95;;;;;;;-144.73;100.00;54259.91;5069246;28;20047;-71
2023/05/16 03:59:56;;;;;;;28.25;6.60;;;;;;;-144.73;100.00;54247.59;5043130;28;20020;-70
2023/05/16 04:02:21;;;;;;;27.17;4.78;;;;;;;-144.73;100.00;54247.59;5051143;28;20039;-70
2023/05/16 04:04:46;;;;;;;29.30;4.35;;;;;;;-144.73;100.00;54268.13;5047078;28;20083;-70
2023/05/16 04:07:12;;;;;;;27.65;3.55;;;;;;;-144.73;100.00;54253.75;5045163;28;20032;-70
2023/05/16 04:09:37;;;;;;;21.83;3.47;;;;;;;-144.73;100.00;54292.75;5060075;28;20056;-70
2023/05/16 04:12:03;;;;;;;33.35;4.32;;;;;;;-144.73;100.00;54284.56;5061733;28;20395;-71
2023/05/16 04:14:28;;;;;;;23.05;3.85;;;;;;;-144.73;100.00;54296.88;5067086;28;20032;-70
2023/05/16 04:16:54;;;;;;;23.60;4.35;;;;;;;-144.73;100.00;54276.34;5061166;28;20041;-70
2023/05/16 04:19:19;;;;;;;33.45;5.95;;;;;;;-144.73;100.00;54280.44;5061879;28;20466;-70
2023/05/16 04:21:45;;;;;;;31.88;5.30;;;;;;;-144.73;100.00;54235.28;5050869;28;20093;-71
2023/05/16 04:24:10;;;;;;;28.45;4.97;;;;;;;-144.73;100.00;54245.56;5047880;28;20082;-70
2023/05/16 04:26:38;;;;;;;38.65;4.57;;;;;;;-144.73;100.00;54292.75;5050337;28;20127;-70
2023/05/16 04:29:04;;;;;;;45.38;4.82;;;;;;;-144.73;100.00;54276.34;5049450;28;20024;-70
2023/05/16 04:31:30;;;;;;;40.97;4.82;;;;;;;-144.73;100.00;54342.03;5050816;28;20027;-70
2023/05/16 04:33:56;;;;;;;26.23;4.18;;;;;;;-144.73;100.00;54241.44;5061344;28;20032;-70
2023/05/16 04:36:22;;;;;;;34.35;4.95;;;;;;;-144.73;100.00;54255.81;5048372;28;20035;-70
2023/05/16 04:38:48;;;;;;;46.25;4.40;;;;;;;-144.73;100.00;54276.34;5050960;28;20107;-70
2023/05/16 04:41:13;;;;;;;31.50;4.45;;;;;;;-144.73;100.00;54243.50;5067351;28;20075;-70
2023/05/16 04:43:39;;;;;;;24.83;4.85;;;;;;;-144.73;100.00;54280.44;5067339;28;20032;-69
2023/05/16 04:46:06;;;;;;;31.60;5.20;;;;;;;-144.73;100.00;54241.44;5053782;28;20024;-70
2023/05/16 04:48:32;;;;;;;28.88;4.00;;;;;;;-144.73;100.00;54231.19;5045048;28;20071;-70
2023/05/16 04:50:57;;;;;;;27.45;4.32;;;;;;;-144.73;100.00;54317.38;5051412;28;20032;-70
2023/05/16 04:53:23;;;;;;;35.20;4.70;;;;;;;-144.73;100.00;54276.34;5050205;28;20044;-70
2023/05/16 04:55:48;;;;;;;28.08;4.63;;;;;;;-144.73;100.00;54255.81;5050766;28;20032;-70
2023/05/16 04:58:13;;;;;;;28.85;3.78;;;;;;;-144.73;100.00;54239.41;5059345;28;20060;-69
2023/05/16 05:00:39;;;;;;;29.67;4.07;;;;;;;-144.73;100.00;54251.72;5050507;28;20060;-69
2023/05/16 05:03:04;;;;;;;22.58;3.40;;;;;;;-144.73;100.00;54280.44;5064207;28;20108;-69
2023/05/16 05:05:29;;;;;;;24.08;3.92;;;;;;;-144.73;100.00;54282.50;5050554;28;20046;-69
2023/05/16 05:07:57;;;;;;;36.38;4.00;;;;;;;-144.73;100.00;54249.66;5061649;28;20147;-69
2023/05/16 05:10:22;;;;;;;29.02;3.83;;;;;;;-144.73;100.00;54280.44;5050924;28;20024;-69
2023/05/16 05:12:48;;;;;;;44.20;6.68;;;;;;;-144.73;99.71;54292.75;5064993;28;20455;-69
2023/05/16 05:15:13;;;;;;;27.58;3.53;;;;;;;-144.73;99.28;54259.91;5050551;28;20031;-70
2023/05/16 05:17:38;;;;;;;28.10;3.90;;;;;;;-144.73;99.35;54296.88;5072388;28;20419;-70
2023/05/16 05:20:07;;;;;;;21.00;3.28;;;;;;;-144.73;97.83;54276.34;5047668;28;20149;-70
2023/05/16 05:22:33;;;;;;;24.42;4.10;;;;;;;-144.73;97.06;54276.34;5040128;28;20048;-70
2023/05/16 05:24:58;;;;;;;20.30;2.88;;;;;;;-144.73;97.19;54243.50;5071019;28;20036;-70
2023/05/16 05:27:24;;;;;;;25.55;4.03;;;;;;;-144.73;97.19;54247.59;5067371;28;20075;-70
2023/05/16 05:29:49;;;;;;;22.50;3.33;;;;;;;-144.73;97.55;54342.03;5049132;28;20035;-70
2023/05/16 05:32:15;;;;;;;23.70;3.40;;;;;;;-144.73;96.64;54259.91;5050361;28;20063;-70
2023/05/16 05:34:40;;;;;;;27.38;3.28;;;;;;;-144.73;95.13;54259.91;5066504;28;20024;-70
2023/05/16 05:37:05;;;;;;;22.15;4.10;;;;;;;-144.73;92.83;54257.88;5051107;28;20027;-70
2023/05/16 05:39:31;;;;;;;28.58;4.22;;;;;;;-144.73;92.99;54257.88;5053697;28;20579;-70
2023/05/16 05:41:57;;;;;;;23.30;3.50;;;;;;;-144.73;93.54;54239.41;5052531;28;20041;-70
2023/05/16 05:44:23;;;;;;;22.55;4.13;;;;;;;-144.73;91.84;54251.72;5053857;28;20020;-71
2023/05/16 05:46:48;;;;;;;20.38;3.95;;;;;;;-144.73;90.24;54218.88;5067041;28;20033;-70
2023/05/16 05:49:13;;;;;;;29.35;4.22;;;;;;;-144.73;92.27;54239.41;5051440;28;20043;-70
2023/05/16 05:51:39;;;;;;;28.65;4.82;;;;;;;-144.73;91.69;54253.75;5051284;28;20033;-71
2023/05/16 05:54:05;;;;;;;21.25;3.45;;;;;;;-144.73;92.33;54231.19;5050634;28;20040;-70
2023/05/16 05:56:30;;;;;;;24.02;3.05;;;;;;;-144.73;91.66;54276.34;5065594;28;20103;-70
2023/05/16 05:58:55;;;;;;;31.30;5.07;;;;;;;-144.73;91.33;54342.03;5064793;28;20098;-70
2023/05/16 06:01:21;;;;;;;23.65;3.90;;;;;;;-144.73;91.89;54276.34;5050459;28;20025;-70
2023/05/16 06:03:46;;;;;;;23.92;3.10;;;;;;;-144.73;92.74;54278.41;5053363;28;20086;-70
2023/05/16 06:06:13;;;;;;;21.15;3.55;;;;;;;-144.73;92.19;54264.03;5065006;28;20036;-71
2023/05/16 06:08:39;;;;;;;31.60;4.72;;;;;;;-144.73;91.83;54276.34;5062629;28;20028;-71
2023/05/16 06:11:06;;;;;;;33.45;4.40;;;;;;;-144.73;91.65;54259.91;5038810;28;20017;-69
2023/05/16 06:13:31;;;;;;;21.30;3.22;;;;;;;-144.73;91.16;54280.44;5038954;28;20040;-70
2023/05/16 06:15:56;;;;;;;22.00;3.22;;;;;;;-144.73;89.49;54255.81;5038221;28;20035;-69
2023/05/16 06:18:22;;;;;;;27.67;3.78;;;;;;;-144.73;89.21;54264.03;5053342;28;20146;-69
2023/05/16 06:20:47;;;;;;;27.48;3.17;;;;;;;-144.73;87.00;54243.50;5052049;28;20021;-70
2023/05/16 06:23:12;;;;;;;22.75;2.65;;;;;;;-144.73;85.40;54296.88;5043912;28;20101;-72
2023/05/16 06:25:38;;;;;;;24.63;3.50;;;;;;;-144.73;82.38;54305.06;5060456;28;20047;-70
2023/05/16 06:28:04;;;;;;;30.33;3.03;;;;;;;-144.73;84.27;54276.34;5043071;28;20031;-70
2023/05/16 06:30:29;;;;;;;26.48;2.80;;;;;;;-144.73;84.87;54278.41;5043375;28;20101;-70
2023/05/16 06:32:54;;;;;;;26.73;2.78;;;;;;;-144.73;82.34;54342.03;5064634;28;20109;-70
2023/05/16 06:35:20;;;;;;;24.48;3.67;;;;;;;-144.73;83.41;54251.72;5067711;28;20090;-70
2023/05/16 06:37:45;;;;;;;25.02;4.50;;;;;;;-144.73;83.02;54243.50;5056209;28;20040;-70
2023/05/16 06:40:11;;;;;;;15.30;2.70;;;;;;;-144.73;82.54;54245.56;5044938;28;20028;-70
2023/05/16 06:42:37;;;;;;;22.88;3.38;;;;;;;-144.73;81.62;54296.88;5056546;28;20129;-70
2023/05/16 06:45:02;;;;;;;26.63;3.42;;;;;;;-144.73;81.38;54264.03;5043204;28;20020;-70
2023/05/16 06:47:28;;;;;;;23.77;3.55;;;;;;;-144.73;82.18;54276.34;5043572;28;20036;-70
2023/05/16 06:49:53;;;;;;;15.43;3.03;;;;;;;-144.73;82.33;54276.34;5058388;28;20079;-69
2023/05/16 06:52:18;;;;;;;23.38;3.00;;;;;;;-144.73;82.16;54255.81;5051968;28;20033;-70
2023/05/16 06:54:44;;;;;;;20.35;3.17;;;;;;;-144.73;83.60;54220.94;5045615;28;20064;-70
2023/05/16 06:57:09;;;;;;;22.70;3.50;;;;;;;-144.73;86.26;54214.78;5041608;28;20051;-70
2023/05/16 06:59:35;;;;;;;21.58;2.95;;;;;;;-144.73;88.14;54280.44;5045628;28;20025;-72
2023/05/16 07:02:01;;;;;;;26.55;4.18;;;;;;;-144.73;87.29;54284.56;5065451;28;20048;-71
2023/05/16 07:04:26;;;;;;;26.23;3.58;;;;;;;-144.73;86.38;54233.25;5044466;28;20017;-70
2023/05/16 07:06:52;;;;;;;30.45;4.57;;;;;;;-144.73;83.29;54239.41;5055153;28;20082;-71
2023/05/16 07:09:18;;;;;;;26.42;3.53;;;;;;;-144.73;81.73;54342.03;5038958;28;20027;-69
2023/05/16 07:11:43;;;;;;;31.35;2.90;;;;;;;-144.73;81.50;54210.66;5063826;28;20324;-70
2023/05/16 07:14:09;;;;;;;25.30;3.75;;;;;;;-144.73;82.81;54243.50;5050444;28;20062;-70
2023/05/16 07:16:34;;;;;;;21.27;3.03;;;;;;;-144.73;81.24;54251.72;5060250;28;20029;-70
2023/05/16 07:19:00;;;;;;;23.98;3.47;;;;;;;-144.73;81.23;54264.03;5075215;28;20024;-71
2023/05/16 07:21:25;;;;;;;17.50;3.50;;;;;;;-144.73;81.54;54239.41;5072105;28;20087;-70
2023/05/16 07:23:51;;;;;;;19.60;3.20;;;;;;;-144.73;81.44;54284.56;5053493;28;20032;-70
2023/05/16 07:26:16;;;;;;;18.40;3.38;;;;;;;-144.73;80.20;54286.59;5055095;28;20112;-70
2023/05/16 07:28:42;;;;;;;23.83;3.33;;;;;;;-144.73;79.98;54247.59;5058428;28;20079;-70
2023/05/16 07:31:07;;;;;;;11.05;2.60;;;;;;;-144.73;80.69;54251.72;5053533;28;20052;-70
2023/05/16 07:33:33;;;;;;;16.02;3.08;;;;;;;-144.73;79.95;54280.44;5046326;28;20536;-70
2023/05/16 07:35:58;;;;;;;20.73;2.83;;;;;;;-144.73;80.08;54239.41;5039499;28;20037;-69
2023/05/16 07:38:23;;;;;;;16.73;2.58;;;;;;;-144.73;81.34;54225.03;5040693;28;20084;-71
2023/05/16 07:40:49;;;;;;;16.65;2.83;;;;;;;-144.73;81.43;54210.66;5043759;28;20043;-72
2023/05/16 07:43:14;;;;;;;15.80;2.63;;;;;;;-144.73;78.55;54243.50;5040539;28;20028;-69
2023/05/16 07:45:40;;;;;;;19.10;3.05;;;;;;;-144.73;73.83;54247.59;5043587;28;20037;-70
2023/05/16 07:48:05;;;;;;;14.02;2.13;;;;;;;-144.73;70.14;54239.41;5056000;28;20079;-70
2023/05/16 07:50:31;;;;;;;18.30;2.58;;;;;;;-144.73;69.91;54220.94;5065151;28;20033;-70
2023/05/16 07:52:56;;;;;;;10.93;2.58;;;;;;;-144.73;70.33;54214.78;5061027;28;20604;-70
2023/05/16 07:55:22;;;;;;;18.67;2.75;;;;;;;-144.73;65.32;54194.25;5039733;28;20033;-70
2023/05/16 07:57:48;;;;;;;12.40;2.03;;;;;;;-144.73;61.56;54243.50;5043362;28;20055;-71
2023/05/16 08:00:14;;;;;;;14.45;2.45;;;;;;;-144.73;61.89;54309.19;5060407;28;20024;-70
2023/05/16 08:02:40;;;;;;;12.40;2.47;;;;;;;-144.73;63.12;54243.50;5057807;28;20207;-70
2023/05/16 08:05:06;;;;;;;15.55;2.72;;;;;;;-144.73;62.88;54231.19;5043235;28;20051;-70
2023/05/16 08:07:32;;;;;;;11.50;2.55;;;;;;;-144.73;62.25;54194.25;5039212;28;20037;-70
2023/05/16 08:09:57;;;;;;;16.45;2.85;;;;;;;-144.73;63.08;54249.66;5038223;28;20029;-68
2023/05/16 08:12:23;;;;;;;20.23;2.40;;;;;;;-144.73;62.97;54243.50;5079537;28;20032;-69
2023/05/16 08:14:48;;;;;;;13.35;2.65;;;;;;;-144.73;62.56;54235.28;5047013;28;20025;-70
2023/05/16 08:17:13;;;;;;;15.23;2.67;;;;;;;-144.73;59.91;54218.88;5065128;28;20043;-70
2023/05/16 08:19:39;;;;;;;14.75;2.38;;;;;;;-144.73;61.16;54276.34;5074848;28;20123;-71
2023/05/16 08:22:05;;;;;;;14.90;2.42;;;;;;;-144.73;59.76;54276.34;5043218;28;20051;-70
2023/05/16 08:24:31;;;;;;;19.45;2.60;;;;;;;-144.73;61.21;54266.06;5043981;28;20068;-70
2023/05/16 08:26:56;;;;;;;10.13;2.13;;;;;;;-144.73;60.29;54276.34;5054912;28;20067;-70
2023/05/16 08:29:21;;;;;;;12.13;2.58;;;;;;;-144.73;59.69;54181.94;5044211;28;20100;-70
2023/05/16 08:31:47;;;;;;;17.85;2.95;;;;;;;-144.73;60.98;54218.88;5046204;28;20036;-71
2023/05/16 08:34:12;;;;;;;17.10;2.88;;;;;;;-144.73;62.70;54247.59;5047522;28;20039;-70
2023/05/16 08:36:37;;;;;;;21.08;3.30;;;;;;;-144.73;65.00;54284.56;5045759;28;20033;-71
2023/05/16 08:39:03;;;;;;;16.00;2.90;;;;;;;-144.73;67.33;54268.13;5059867;28;20028;-71
2023/05/16 08:41:29;;;;;;;21.42;3.17;;;;;;;-144.73;67.95;54214.78;5058696;28;20044;-71
2023/05/16 08:43:56;;;;;;;16.55;3.22;;;;;;;-144.73;62.61;54251.72;5044273;28;20044;-71
2023/05/16 08:46:22;;;;;;;14.23;2.40;;;;;;;-144.73;60.23;54222.97;5054511;28;20024;-70
2023/05/16 08:48:52;;;;;;;19.17;2.78;;;;;;;-144.73;62.76;54202.44;5052629;28;20124;-71
2023/05/16 08:51:23;;;;;;;18.48;3.20;;;;;;;-144.73;64.09;54210.66;5053339;28;20025;-70
2023/05/16 08:54:10;;;;;;;29.20;3.05;;;;;;;-144.73;63.49;54218.88;5044225;28;20115;-70
2023/05/16 08:56:37;;;;;;;24.73;2.70;;;;;;;-144.73;63.39;54276.34;5052264;28;20028;-71
2023/05/16 08:59:03;;;;;;;12.73;2.22;;;;;;;-144.73;56.54;54259.91;5041399;28;20218;-71
2023/05/16 09:01:29;;;;;;;16.75;2.28;;;;;;;-144.73;53.98;54231.19;5064747;28;20098;-71
2023/05/16 09:03:55;;;;;;;8.63;1.50;;;;;;;-144.73;54.61;54239.41;5044413;28;20055;-70
2023/05/16 09:06:21;;;;;;;10.73;2.45;;;;;;;-144.73;53.79;54218.88;5051571;28;20356;-70
2023/05/16 09:08:46;;;;;;;17.77;2.63;;;;;;;-144.73;53.89;54210.66;5050542;28;20047;-71
2023/05/16 09:11:11;;;;;;;10.98;1.90;;;;;;;-144.73;55.00;54247.59;5042508;28;20021;-71
2023/05/16 09:13:38;;;;;;;17.00;3.05;;;;;;;-144.73;54.82;54210.66;5056892;28;20052;-71
2023/05/16 09:16:18;;;;;;;18.35;2.33;;;;;;;-144.73;55.41;54218.88;5077833;28;20092;-71
2023/05/16 09:18:45;;;;;;;14.68;3.28;;;;;;;-144.73;59.80;54194.25;5042874;28;20070;-70
2023/05/16 09:21:12;;;;;;;14.52;2.30;;;;;;;-144.73;59.18;54247.59;5045415;28;20115;-70
2023/05/16 09:23:37;;;;;;;19.75;2.60;;;;;;;-144.73;59.71;54247.59;5065010;28;20052;-71
2023/05/16 09:26:06;;;;;;;26.60;3.78;;;;;;;-144.73;61.06;54186.03;5045757;28;20133;-70
2023/05/16 09:28:32;;;;;;;16.60;3.40;;;;;;;-144.73;60.25;54247.59;5050650;28;20036;-70
2023/05/16 09:30:58;;;;;;;13.18;2.90;;;;;;;-144.73;59.17;54214.78;5064909;28;20025;-70
2023/05/16 09:33:28;;;;;;;16.75;3.63;;;;;;;-144.73;58.83;54206.56;5044378;28;20119;-71
2023/05/16 09:35:58;;;;;;;12.70;2.47;;;;;;;-144.73;59.89;54222.97;5054198;28;20051;-71
2023/05/16 09:38:25;;;;;;;23.48;2.95;;;;;;;-144.73;61.40;54227.09;5054813;28;20037;-71
2023/05/16 09:40:51;;;;;;;18.83;2.42;;;;;;;-144.73;60.49;54253.75;5048583;28;20396;-71
2023/05/16 09:43:17;;;;;;;25.05;3.58;;;;;;;-144.73;58.46;54237.34;5043759;28;20040;-71
2023/05/16 09:45:47;;;;;;;16.55;2.70;;;;;;;-144.73;58.37;54210.66;5076438;28;20029;-71
2023/05/16 09:48:14;;;;;;;15.63;3.03;;;;;;;-144.73;60.85;54227.09;5048904;28;20041;-71
2023/05/16 09:50:41;;;;;;;14.63;2.88;;;;;;;-144.73;59.67;54259.91;5048753;28;20024;-71
2023/05/16 09:53:07;;;;;;;16.55;2.22;;;;;;;-144.73;55.53;54206.56;5045178;28;20037;-71
2023/05/16 09:55:32;;;;;;;14.80;2.20;;;;;;;-144.73;54.78;54237.34;5046373;28;20024;-71
2023/05/16 09:57:58;;;;;;;11.90;2.53;;;;;;;-144.73;53.71;54200.41;5062549;28;20048;-72
2023/05/16 10:00:31;;;;;;;17.38;2.08;;;;;;;-144.73;51.45;54194.25;5044877;28;20024;-70
2023/05/16 10:02:57;;;;;;;16.17;2.60;;;;;;;-144.73;51.68;54251.72;5044708;28;20109;-70
2023/05/16 10:05:25;;;;;;;17.50;2.30;;;;;;;-144.73;52.01;54222.97;5044329;28;20028;-70
2023/05/16 10:07:55;;;;;;;19.42;2.17;;;;;;;-144.73;53.43;54239.41;5045085;28;20412;-70
2023/05/16 10:10:20;;;;;;;18.02;2.85;;;;;;;-144.73;53.81;54251.72;5045457;28;20031;-70
2023/05/16 10:12:46;;;;;;;13.35;2.78;;;;;;;-144.73;53.98;54239.41;5043460;28;20036;-70
2023/05/16 10:15:13;;;;;;;21.40;3.08;;;;;;;-144.73;56.47;54257.88;5067832;28;20028;-70
2023/05/16 10:17:39;;;;;;;27.23;3.40;;;;;;;-144.73;63.08;54247.59;5036704;28;20434;-69
2023/05/16 10:20:06;;;;;;;11.52;2.17;;;;;;;-144.73;62.48;54227.09;5074714;28;20036;-70
2023/05/16 10:22:34;;;;;;;29.45;3.83;;;;;;;-144.73;60.13;54198.34;5081593;28;20074;-70
2023/05/16 10:25:39;;;;;;;18.15;3.00;;;;;;;-144.73;60.30;54220.94;5041549;28;20041;-71
2023/05/16 10:28:07;;;;;;;24.75;3.78;;;;;;;-144.73;57.28;54235.28;5077656;28;20040;-71
2023/05/16 10:30:34;;;;;;;27.17;4.30;;;;;;;-144.73;60.15;54264.03;5043923;28;20033;-70
2023/05/16 10:33:01;;;;;;;28.13;3.97;;;;;;;-144.73;61.24;54255.81;5062811;28;20040;-70
2023/05/16 10:35:26;;;;;;;31.90;4.63;;;;;;;-144.73;62.15;54231.19;5039973;28;20045;-70
2023/05/16 10:37:52;;;;;;;26.55;4.05;;;;;;;-144.73;61.42;54231.19;5045340;28;20040;-70
2023/05/16 10:40:19;;;;;;;21.95;3.22;;;;;;;-144.73;60.19;54227.09;5046157;28;20123;-70
2023/05/16 10:42:59;;;;;;;21.63;3.42;;;;;;;-144.73;60.68;54171.66;5046769;28;20076;-70
2023/05/16 10:45:24;;;;;;;17.58;3.53;;;;;;;-144.73;57.06;54231.19;5043035;28;20152;-70
2023/05/16 10:48:03;;;;;;;16.50;2.80;;;;;;;-144.73;56.02;54255.81;5045075;28;20115;-70
2023/05/16 10:50:41;;;;;;;25.80;3.70;;;;;;;-144.73;56.37;54280.44;5042515;28;20028;-70
2023/05/16 10:53:15;;;;;;;23.77;2.78;;;;;;;-144.73;56.34;54247.59;5044175;28;20064;-70
2023/05/16 10:56:07;;;;;;;20.48;2.75;;;;;;;-144.73;53.88;54190.13;5072877;28;20090;-70
2023/05/16 10:58:33;;;;;;;11.65;2.20;;;;;;;-144.73;55.31;54243.50;5062150;28;20742;-70
2023/05/16 11:01:26;;;;;;;16.90;2.40;;;;;;;-144.73;57.39;54243.50;5076454;28;20033;-70
2023/05/16 11:04:00;;;;;;;21.00;3.45;;;;;;;-144.73;55.01;54276.34;5060288;28;20048;-72
2023/05/16 11:06:42;;;;;;;16.70;3.55;;;;;;;-144.73;55.04;54239.41;5061503;28;20090;-71